sensor_id;sensor_type;location;lat;lon;timestamp;P1;durP1;ratioP1;P2;durP2;ratioP2
34317;SDS011;20582;52.196;20.952;2023-03-14T00:01:19;17.35;;;7.55;;
34317;SDS011;20582;52.196;20.952;2023-03-14T00:03:46;14.98;;;6.57;;
34317;SDS011;20582;52.196;20.952;2023-03-14T00:06:12;15.98;;;7.32;;
34317;SDS011;20582;52.196;20.952;2023-03-14T00:08:39;15.98;;;7.20;;
34317;SDS011;20582;52.196;20.952;2023-03-14T00:13:31;16.77;;;7.38;;
34317;SDS011;20582;52.196;20.952;2023-03-14T00:16:01;15.98;;;7.72;;
34317;SDS011;20582;52.196;20.952;2023-03-14T00:18:27;14.50;;;7.80;;
34317;SDS011;20582;52.196;20.952;2023-03-14T00:20:53;17.35;;;8.00;;
34317;SDS011;20582;52.196;20.952;2023-03-14T00:23:19;17.88;;;8.65;;
34317;SDS011;20582;52.196;20.952;2023-03-14T00:25:45;15.38;;;7.90;;
34317;SDS011;20582;52.196;20.952;2023-03-14T00:28:11;22.88;;;9.50;;
34317;SDS011;20582;52.196;20.952;2023-03-14T00:30:37;17.05;;;8.38;;
34317;SDS011;20582;52.196;20.952;2023-03-14T00:33:03;20.35;;;8.65;;
34317;SDS011;20582;52.196;20.952;2023-03-14T00:35:29;16.58;;;7.97;;
34317;SDS011;20582;52.196;20.952;2023-03-14T00:37:55;18.45;;;9.18;;
34317;SDS011;20582;52.196;20.952;2023-03-14T00:40:21;16.95;;;8.32;;
34317;SDS011;20582;52.196;20.952;2023-03-14T00:42:47;17.33;;;7.85;;
34317;SDS011;20582;52.196;20.952;2023-03-14T00:45:13;17.17;;;8.13;;
34317;SDS011;20582;52.196;20.952;2023-03-14T00:47:39;17.45;;;8.35;;
34317;SDS011;20582;52.196;20.952;2023-03-14T00:50:05;17.95;;;7.90;;
34317;SDS011;20582;52.196;20.952;2023-03-14T00:52:31;16.58;;;8.27;;
34317;SDS011;20582;52.196;20.952;2023-03-14T00:54:57;16.05;;;7.88;;
34317;SDS011;20582;52.196;20.952;2023-03-14T00:57:23;18.13;;;8.38;;
34317;SDS011;20582;52.196;20.952;2023-03-14T00:59:50;15.18;;;7.75;;
34317;SDS011;20582;52.196;20.952;2023-03-14T01:02:16;21.35;;;8.07;;
34317;SDS011;20582;52.196;20.952;2023-03-14T01:04:42;16.63;;;7.55;;
34317;SDS011;20582;52.196;20.952;2023-03-14T01:07:08;13.88;;;7.53;;
34317;SDS011;20582;52.196;20.952;2023-03-14T01:09:34;18.13;;;7.85;;
34317;SDS011;20582;52.196;20.952;2023-03-14T01:12:00;15.55;;;7.68;;
34317;SDS011;20582;52.196;20.952;2023-03-14T01:14:26;16.17;;;7.40;;
34317;SDS011;20582;52.196;20.952;2023-03-14T01:16:52;18.42;;;8.32;;
34317;SDS011;20582;52.196;20.952;2023-03-14T01:19:18;16.08;;;7.68;;
34317;SDS011;20582;52.196;20.952;2023-03-14T01:21:44;16.45;;;7.53;;
34317;SDS011;20582;52.196;20.952;2023-03-14T01:24:10;15.80;;;7.65;;
34317;SDS011;20582;52.196;20.952;2023-03-14T01:26:36;19.08;;;7.60;;
34317;SDS011;20582;52.196;20.952;2023-03-14T01:29:02;17.15;;;8.13;;
34317;SDS011;20582;52.196;20.952;2023-03-14T01:31:29;16.58;;;7.40;;
34317;SDS011;20582;52.196;20.952;2023-03-14T01:33:55;17.20;;;8.07;;
34317;SDS011;20582;52.196;20.952;2023-03-14T01:36:21;14.57;;;7.55;;
34317;SDS011;20582;52.196;20.952;2023-03-14T01:38:47;16.20;;;7.50;;
34317;SDS011;20582;52.196;20.952;2023-03-14T01:41:14;17.40;;;8.00;;
34317;SDS011;20582;52.196;20.952;2023-03-14T01:43:40;16.08;;;7.97;;
34317;SDS011;20582;52.196;20.952;2023-03-14T01:51:13;17.42;;;7.85;;
34317;SDS011;20582;52.196;20.952;2023-03-14T01:53:41;15.02;;;7.28;;
34317;SDS011;20582;52.196;20.952;2023-03-14T01:56:08;16.73;;;7.88;;
34317;SDS011;20582;52.196;20.952;2023-03-14T01:58:35;17.02;;;8.05;;
34317;SDS011;20582;52.196;20.952;2023-03-14T02:01:02;15.40;;;7.78;;
34317;SDS011;20582;52.196;20.952;2023-03-14T02:03:28;14.25;;;7.72;;
34317;SDS011;20582;52.196;20.952;2023-03-14T02:05:56;18.02;;;7.80;;
34317;SDS011;20582;52.196;20.952;2023-03-14T02:08:25;17.92;;;8.00;;
34317;SDS011;20582;52.196;20.952;2023-03-14T02:10:53;17.08;;;7.38;;
34317;SDS011;20582;52.196;20.952;2023-03-14T02:13:19;17.88;;;7.20;;
34317;SDS011;20582;52.196;20.952;2023-03-14T02:15:45;17.70;;;7.95;;
34317;SDS011;20582;52.196;20.952;2023-03-14T02:18:11;15.35;;;7.35;;
34317;SDS011;20582;52.196;20.952;2023-03-14T02:23:07;16.95;;;7.82;;
34317;SDS011;20582;52.196;20.952;2023-03-14T02:27:59;15.05;;;7.28;;
34317;SDS011;20582;52.196;20.952;2023-03-14T02:30:27;17.13;;;7.28;;
34317;SDS011;20582;52.196;20.952;2023-03-14T02:33:15;15.30;;;7.20;;
34317;SDS011;20582;52.196;20.952;2023-03-14T02:35:40;17.42;;;7.82;;
34317;SDS011;20582;52.196;20.952;2023-03-14T02:40:45;14.70;;;6.97;;
34317;SDS011;20582;52.196;20.952;2023-03-14T02:43:12;14.27;;;6.22;;
34317;SDS011;20582;52.196;20.952;2023-03-14T02:45:39;14.98;;;7.35;;
34317;SDS011;20582;52.196;20.952;2023-03-14T02:48:11;15.70;;;7.88;;
34317;SDS011;20582;52.196;20.952;2023-03-14T02:50:37;16.30;;;7.57;;
34317;SDS011;20582;52.196;20.952;2023-03-14T02:53:04;15.38;;;7.40;;
34317;SDS011;20582;52.196;20.952;2023-03-14T02:55:30;18.70;;;8.43;;
34317;SDS011;20582;52.196;20.952;2023-03-14T02:57:56;17.60;;;7.95;;
34317;SDS011;20582;52.196;20.952;2023-03-14T03:00:22;13.93;;;6.78;;
34317;SDS011;20582;52.196;20.952;2023-03-14T03:02:48;15.00;;;6.95;;
34317;SDS011;20582;52.196;20.952;2023-03-14T03:05:14;18.38;;;6.35;;
34317;SDS011;20582;52.196;20.952;2023-03-14T03:07:40;14.00;;;6.93;;
34317;SDS011;20582;52.196;20.952;2023-03-14T03:10:06;14.88;;;6.45;;
34317;SDS011;20582;52.196;20.952;2023-03-14T03:12:32;14.77;;;6.82;;
34317;SDS011;20582;52.196;20.952;2023-03-14T03:14:58;14.75;;;6.20;;
34317;SDS011;20582;52.196;20.952;2023-03-14T03:17:24;15.05;;;6.68;;
34317;SDS011;20582;52.196;20.952;2023-03-14T03:19:53;15.50;;;6.50;;
34317;SDS011;20582;52.196;20.952;2023-03-14T03:22:19;13.45;;;6.65;;
34317;SDS011;20582;52.196;20.952;2023-03-14T03:24:45;13.68;;;6.30;;
34317;SDS011;20582;52.196;20.952;2023-03-14T03:27:11;13.63;;;6.20;;
34317;SDS011;20582;52.196;20.952;2023-03-14T03:29:37;13.10;;;6.18;;
34317;SDS011;20582;52.196;20.952;2023-03-14T03:32:03;13.63;;;6.20;;
34317;SDS011;20582;52.196;20.952;2023-03-14T03:34:29;14.35;;;6.28;;
34317;SDS011;20582;52.196;20.952;2023-03-14T03:36:58;12.10;;;5.82;;
34317;SDS011;20582;52.196;20.952;2023-03-14T03:39:24;15.27;;;6.07;;
34317;SDS011;20582;52.196;20.952;2023-03-14T03:41:50;14.05;;;5.75;;
34317;SDS011;20582;52.196;20.952;2023-03-14T03:44:16;13.93;;;5.45;;
34317;SDS011;20582;52.196;20.952;2023-03-14T03:46:42;11.57;;;5.75;;
34317;SDS011;20582;52.196;20.952;2023-03-14T03:49:08;12.68;;;5.57;;
34317;SDS011;20582;52.196;20.952;2023-03-14T03:51:34;11.13;;;5.97;;
34317;SDS011;20582;52.196;20.952;2023-03-14T03:54:00;12.05;;;5.60;;
34317;SDS011;20582;52.196;20.952;2023-03-14T03:56:26;14.40;;;5.70;;
34317;SDS011;20582;52.196;20.952;2023-03-14T03:58:51;14.50;;;5.70;;
34317;SDS011;20582;52.196;20.952;2023-03-14T04:01:17;12.35;;;6.00;;
34317;SDS011;20582;52.196;20.952;2023-03-14T04:03:43;12.18;;;5.60;;
34317;SDS011;20582;52.196;20.952;2023-03-14T04:06:10;11.55;;;5.55;;
34317;SDS011;20582;52.196;20.952;2023-03-14T04:08:37;12.27;;;6.00;;
34317;SDS011;20582;52.196;20.952;2023-03-14T04:11:04;11.15;;;5.60;;
34317;SDS011;20582;52.196;20.952;2023-03-14T04:13:30;13.25;;;5.32;;
34317;SDS011;20582;52.196;20.952;2023-03-14T04:15:56;12.63;;;5.65;;
34317;SDS011;20582;52.196;20.952;2023-03-14T04:18:22;13.13;;;5.60;;
34317;SDS011;20582;52.196;20.952;2023-03-14T04:20:52;12.00;;;5.97;;
34317;SDS011;20582;52.196;20.952;2023-03-14T04:23:18;12.23;;;5.57;;
34317;SDS011;20582;52.196;20.952;2023-03-14T04:25:44;17.50;;;5.95;;
34317;SDS011;20582;52.196;20.952;2023-03-14T04:28:10;16.25;;;5.88;;
34317;SDS011;20582;52.196;20.952;2023-03-14T04:30:36;15.07;;;5.40;;
34317;SDS011;20582;52.196;20.952;2023-03-14T04:33:02;12.73;;;5.30;;
34317;SDS011;20582;52.196;20.952;2023-03-14T04:35:30;13.45;;;5.60;;
34317;SDS011;20582;52.196;20.952;2023-03-14T04:37:56;10.90;;;5.22;;
34317;SDS011;20582;52.196;20.952;2023-03-14T04:40:22;13.65;;;5.80;;
34317;SDS011;20582;52.196;20.952;2023-03-14T04:42:48;12.05;;;5.63;;
34317;SDS011;20582;52.196;20.952;2023-03-14T04:45:14;12.45;;;5.35;;
34317;SDS011;20582;52.196;20.952;2023-03-14T04:47:40;14.13;;;6.00;;
34317;SDS011;20582;52.196;20.952;2023-03-14T04:50:06;12.05;;;5.55;;
34317;SDS011;20582;52.196;20.952;2023-03-14T04:52:32;13.50;;;5.70;;
34317;SDS011;20582;52.196;20.952;2023-03-14T04:54:58;11.52;;;5.82;;
34317;SDS011;20582;52.196;20.952;2023-03-14T04:57:24;10.27;;;5.18;;
34317;SDS011;20582;52.196;20.952;2023-03-14T04:59:50;13.85;;;5.68;;
34317;SDS011;20582;52.196;20.952;2023-03-14T05:02:16;14.15;;;5.60;;
34317;SDS011;20582;52.196;20.952;2023-03-14T05:04:42;12.98;;;5.90;;
34317;SDS011;20582;52.196;20.952;2023-03-14T05:07:07;22.85;;;9.20;;
34317;SDS011;20582;52.196;20.952;2023-03-14T05:09:33;17.42;;;6.75;;
34317;SDS011;20582;52.196;20.952;2023-03-14T05:11:59;11.65;;;5.30;;
34317;SDS011;20582;52.196;20.952;2023-03-14T05:14:26;13.35;;;5.70;;
34317;SDS011;20582;52.196;20.952;2023-03-14T05:16:52;16.10;;;5.88;;
34317;SDS011;20582;52.196;20.952;2023-03-14T05:19:18;12.10;;;5.47;;
34317;SDS011;20582;52.196;20.952;2023-03-14T05:21:44;10.23;;;4.80;;
34317;SDS011;20582;52.196;20.952;2023-03-14T05:24:09;10.25;;;4.60;;
34317;SDS011;20582;52.196;20.952;2023-03-14T05:26:35;13.55;;;5.43;;
34317;SDS011;20582;52.196;20.952;2023-03-14T05:29:01;13.27;;;6.03;;
34317;SDS011;20582;52.196;20.952;2023-03-14T05:31:27;11.98;;;5.05;;
34317;SDS011;20582;52.196;20.952;2023-03-14T05:33:53;11.40;;;5.07;;
34317;SDS011;20582;52.196;20.952;2023-03-14T05:36:19;14.10;;;5.50;;
34317;SDS011;20582;52.196;20.952;2023-03-14T05:38:45;12.38;;;5.53;;
34317;SDS011;20582;52.196;20.952;2023-03-14T05:41:11;13.73;;;5.85;;
34317;SDS011;20582;52.196;20.952;2023-03-14T05:43:37;13.63;;;5.28;;
34317;SDS011;20582;52.196;20.952;2023-03-14T05:46:04;12.90;;;6.72;;
34317;SDS011;20582;52.196;20.952;2023-03-14T05:48:30;13.77;;;5.90;;
34317;SDS011;20582;52.196;20.952;2023-03-14T05:50:57;12.65;;;5.45;;
34317;SDS011;20582;52.196;20.952;2023-03-14T05:53:24;11.13;;;5.75;;
34317;SDS011;20582;52.196;20.952;2023-03-14T05:55:51;13.50;;;5.28;;
34317;SDS011;20582;52.196;20.952;2023-03-14T05:58:17;13.70;;;5.82;;
34317;SDS011;20582;52.196;20.952;2023-03-14T06:00:43;12.48;;;5.20;;
34317;SDS011;20582;52.196;20.952;2023-03-14T06:03:09;12.05;;;5.13;;
34317;SDS011;20582;52.196;20.952;2023-03-14T06:05:35;13.13;;;5.32;;
34317;SDS011;20582;52.196;20.952;2023-03-14T06:08:01;11.55;;;5.72;;
34317;SDS011;20582;52.196;20.952;2023-03-14T06:10:27;11.35;;;4.78;;
34317;SDS011;20582;52.196;20.952;2023-03-14T06:12:53;12.98;;;5.78;;
34317;SDS011;20582;52.196;20.952;2023-03-14T06:15:19;10.55;;;5.60;;
34317;SDS011;20582;52.196;20.952;2023-03-14T06:17:45;9.40;;;5.22;;
34317;SDS011;20582;52.196;20.952;2023-03-14T06:20:11;13.95;;;5.60;;
34317;SDS011;20582;52.196;20.952;2023-03-14T06:22:37;16.10;;;6.10;;
34317;SDS011;20582;52.196;20.952;2023-03-14T06:25:04;14.45;;;5.75;;
34317;SDS011;20582;52.196;20.952;2023-03-14T06:27:30;12.48;;;5.72;;
34317;SDS011;20582;52.196;20.952;2023-03-14T06:29:56;15.10;;;5.63;;
34317;SDS011;20582;52.196;20.952;2023-03-14T06:32:22;12.55;;;5.85;;
34317;SDS011;20582;52.196;20.952;2023-03-14T06:34:48;12.30;;;6.05;;
34317;SDS011;20582;52.196;20.952;2023-03-14T06:37:14;13.52;;;6.18;;
34317;SDS011;20582;52.196;20.952;2023-03-14T06:39:40;12.05;;;5.05;;
34317;SDS011;20582;52.196;20.952;2023-03-14T06:42:06;11.02;;;5.47;;
34317;SDS011;20582;52.196;20.952;2023-03-14T06:44:32;11.60;;;5.40;;
34317;SDS011;20582;52.196;20.952;2023-03-14T06:46:58;10.90;;;5.03;;
34317;SDS011;20582;52.196;20.952;2023-03-14T06:49:24;11.05;;;5.20;;
34317;SDS011;20582;52.196;20.952;2023-03-14T06:51:50;12.30;;;5.63;;
34317;SDS011;20582;52.196;20.952;2023-03-14T06:54:16;12.82;;;5.60;;
34317;SDS011;20582;52.196;20.952;2023-03-14T06:56:42;10.93;;;5.10;;
34317;SDS011;20582;52.196;20.952;2023-03-14T06:59:08;11.27;;;5.68;;
34317;SDS011;20582;52.196;20.952;2023-03-14T07:01:34;10.98;;;5.50;;
34317;SDS011;20582;52.196;20.952;2023-03-14T07:04:00;11.80;;;4.97;;
34317;SDS011;20582;52.196;20.952;2023-03-14T07:06:26;11.00;;;5.30;;
34317;SDS011;20582;52.196;20.952;2023-03-14T07:08:54;10.32;;;4.88;;
34317;SDS011;20582;52.196;20.952;2023-03-14T07:11:20;9.40;;;4.70;;
34317;SDS011;20582;52.196;20.952;2023-03-14T07:13:46;43.40;;;11.55;;
34317;SDS011;20582;52.196;20.952;2023-03-14T07:16:12;11.93;;;5.30;;
34317;SDS011;20582;52.196;20.952;2023-03-14T07:18:38;12.05;;;4.65;;
34317;SDS011;20582;52.196;20.952;2023-03-14T07:21:05;11.25;;;4.70;;
34317;SDS011;20582;52.196;20.952;2023-03-14T07:23:31;11.90;;;4.65;;
34317;SDS011;20582;52.196;20.952;2023-03-14T07:25:57;9.60;;;4.75;;
34317;SDS011;20582;52.196;20.952;2023-03-14T07:28:23;13.63;;;5.18;;
34317;SDS011;20582;52.196;20.952;2023-03-14T07:30:49;13.80;;;4.97;;
34317;SDS011;20582;52.196;20.952;2023-03-14T07:33:15;11.77;;;4.80;;
34317;SDS011;20582;52.196;20.952;2023-03-14T07:35:43;13.25;;;5.57;;
34317;SDS011;20582;52.196;20.952;2023-03-14T07:38:09;11.48;;;5.30;;
34317;SDS011;20582;52.196;20.952;2023-03-14T07:40:35;12.73;;;5.38;;
34317;SDS011;20582;52.196;20.952;2023-03-14T07:43:01;17.10;;;4.72;;
34317;SDS011;20582;52.196;20.952;2023-03-14T07:45:27;11.15;;;4.80;;
34317;SDS011;20582;52.196;20.952;2023-03-14T07:47:53;16.27;;;5.90;;
34317;SDS011;20582;52.196;20.952;2023-03-14T07:50:22;14.10;;;4.90;;
34317;SDS011;20582;52.196;20.952;2023-03-14T07:52:48;11.52;;;4.60;;
34317;SDS011;20582;52.196;20.952;2023-03-14T07:55:14;14.98;;;5.10;;
34317;SDS011;20582;52.196;20.952;2023-03-14T07:57:40;12.68;;;5.30;;
34317;SDS011;20582;52.196;20.952;2023-03-14T08:00:07;10.80;;;5.03;;
34317;SDS011;20582;52.196;20.952;2023-03-14T08:02:33;11.88;;;5.25;;
34317;SDS011;20582;52.196;20.952;2023-03-14T08:05:02;11.77;;;5.15;;
34317;SDS011;20582;52.196;20.952;2023-03-14T08:07:29;11.75;;;4.95;;
34317;SDS011;20582;52.196;20.952;2023-03-14T08:09:54;11.20;;;5.68;;
34317;SDS011;20582;52.196;20.952;2023-03-14T08:12:20;15.35;;;5.50;;
34317;SDS011;20582;52.196;20.952;2023-03-14T08:14:46;13.80;;;6.43;;
34317;SDS011;20582;52.196;20.952;2023-03-14T08:17:12;15.32;;;7.00;;
34317;SDS011;20582;52.196;20.952;2023-03-14T08:19:39;10.38;;;4.57;;
34317;SDS011;20582;52.196;20.952;2023-03-14T08:22:06;9.23;;;4.80;;
34317;SDS011;20582;52.196;20.952;2023-03-14T08:24:32;11.90;;;4.68;;
34317;SDS011;20582;52.196;20.952;2023-03-14T08:26:58;12.15;;;5.25;;
34317;SDS011;20582;52.196;20.952;2023-03-14T08:29:24;12.05;;;5.30;;
34317;SDS011;20582;52.196;20.952;2023-03-14T08:31:50;12.43;;;5.45;;
34317;SDS011;20582;52.196;20.952;2023-03-14T08:34:16;10.98;;;5.35;;
34317;SDS011;20582;52.196;20.952;2023-03-14T08:36:42;12.70;;;5.30;;
34317;SDS011;20582;52.196;20.952;2023-03-14T08:39:08;9.45;;;4.47;;
34317;SDS011;20582;52.196;20.952;2023-03-14T08:41:34;10.77;;;4.43;;
34317;SDS011;20582;52.196;20.952;2023-03-14T08:44:05;10.27;;;4.47;;
34317;SDS011;20582;52.196;20.952;2023-03-14T08:46:31;11.85;;;4.70;;
34317;SDS011;20582;52.196;20.952;2023-03-14T08:48:57;12.68;;;5.53;;
34317;SDS011;20582;52.196;20.952;2023-03-14T08:51:23;11.52;;;5.07;;
34317;SDS011;20582;52.196;20.952;2023-03-14T08:53:49;11.65;;;4.72;;
34317;SDS011;20582;52.196;20.952;2023-03-14T08:56:15;12.98;;;4.80;;
34317;SDS011;20582;52.196;20.952;2023-03-14T08:58:41;11.43;;;4.72;;
34317;SDS011;20582;52.196;20.952;2023-03-14T09:01:08;10.45;;;4.70;;
34317;SDS011;20582;52.196;20.952;2023-03-14T09:03:35;9.68;;;4.75;;
34317;SDS011;20582;52.196;20.952;2023-03-14T09:06:02;10.13;;;4.70;;
34317;SDS011;20582;52.196;20.952;2023-03-14T09:08:29;12.65;;;5.70;;
34317;SDS011;20582;52.196;20.952;2023-03-14T09:10:55;13.43;;;4.90;;
34317;SDS011;20582;52.196;20.952;2023-03-14T09:13:21;10.70;;;4.60;;
34317;SDS011;20582;52.196;20.952;2023-03-14T09:15:53;10.65;;;4.85;;
34317;SDS011;20582;52.196;20.952;2023-03-14T09:18:19;10.50;;;4.78;;
34317;SDS011;20582;52.196;20.952;2023-03-14T09:20:45;8.27;;;4.20;;
34317;SDS011;20582;52.196;20.952;2023-03-14T09:23:11;9.65;;;4.60;;
34317;SDS011;20582;52.196;20.952;2023-03-14T09:25:37;9.65;;;4.43;;
34317;SDS011;20582;52.196;20.952;2023-03-14T09:28:03;11.00;;;4.43;;
34317;SDS011;20582;52.196;20.952;2023-03-14T09:30:29;9.15;;;4.60;;
34317;SDS011;20582;52.196;20.952;2023-03-14T09:32:55;12.57;;;4.53;;
34317;SDS011;20582;52.196;20.952;2023-03-14T09:35:22;10.80;;;4.15;;
34317;SDS011;20582;52.196;20.952;2023-03-14T09:37:48;8.70;;;3.83;;
34317;SDS011;20582;52.196;20.952;2023-03-14T09:40:15;9.57;;;4.53;;
34317;SDS011;20582;52.196;20.952;2023-03-14T09:42:41;9.75;;;4.30;;
34317;SDS011;20582;52.196;20.952;2023-03-14T09:45:18;10.27;;;4.03;;
34317;SDS011;20582;52.196;20.952;2023-03-14T09:47:47;7.93;;;3.72;;
34317;SDS011;20582;52.196;20.952;2023-03-14T09:50:13;7.63;;;3.67;;
34317;SDS011;20582;52.196;20.952;2023-03-14T09:52:41;8.88;;;3.97;;
34317;SDS011;20582;52.196;20.952;2023-03-14T09:57:34;8.98;;;3.78;;
34317;SDS011;20582;52.196;20.952;2023-03-14T10:00:13;9.45;;;3.92;;
34317;SDS011;20582;52.196;20.952;2023-03-14T10:02:40;9.93;;;4.13;;
34317;SDS011;20582;52.196;20.952;2023-03-14T10:05:13;8.18;;;3.60;;
34317;SDS011;20582;52.196;20.952;2023-03-14T10:07:40;9.75;;;3.92;;
34317;SDS011;20582;52.196;20.952;2023-03-14T10:10:13;9.45;;;3.97;;
34317;SDS011;20582;52.196;20.952;2023-03-14T10:12:40;8.75;;;3.75;;
34317;SDS011;20582;52.196;20.952;2023-03-14T10:15:08;9.90;;;4.18;;
34317;SDS011;20582;52.196;20.952;2023-03-14T10:17:39;12.65;;;4.40;;
34317;SDS011;20582;52.196;20.952;2023-03-14T10:20:05;12.38;;;4.10;;
34317;SDS011;20582;52.196;20.952;2023-03-14T10:22:35;10.23;;;3.90;;
34317;SDS011;20582;52.196;20.952;2023-03-14T10:25:03;8.45;;;3.90;;
34317;SDS011;20582;52.196;20.952;2023-03-14T10:27:30;9.27;;;3.83;;
34317;SDS011;20582;52.196;20.952;2023-03-14T10:29:58;12.60;;;4.25;;
34317;SDS011;20582;52.196;20.952;2023-03-14T10:32:28;11.52;;;4.47;;
34317;SDS011;20582;52.196;20.952;2023-03-14T10:37:51;14.05;;;4.38;;
34317;SDS011;20582;52.196;20.952;2023-03-14T10:40:19;10.88;;;4.47;;
34317;SDS011;20582;52.196;20.952;2023-03-14T10:42:46;11.27;;;4.43;;
34317;SDS011;20582;52.196;20.952;2023-03-14T10:45:38;13.93;;;4.32;;
34317;SDS011;20582;52.196;20.952;2023-03-14T10:48:06;9.32;;;3.92;;
34317;SDS011;20582;52.196;20.952;2023-03-14T10:50:54;8.15;;;4.00;;
34317;SDS011;20582;52.196;20.952;2023-03-14T10:53:20;11.07;;;4.63;;
34317;SDS011;20582;52.196;20.952;2023-03-14T10:55:46;10.00;;;4.18;;
34317;SDS011;20582;52.196;20.952;2023-03-14T10:58:19;9.55;;;4.05;;
34317;SDS011;20582;52.196;20.952;2023-03-14T11:00:54;9.80;;;3.88;;
34317;SDS011;20582;52.196;20.952;2023-03-14T11:03:22;11.10;;;4.10;;
34317;SDS011;20582;52.196;20.952;2023-03-14T11:06:06;11.55;;;4.28;;
34317;SDS011;20582;52.196;20.952;2023-03-14T11:08:37;13.07;;;4.47;;
34317;SDS011;20582;52.196;20.952;2023-03-14T11:11:09;10.98;;;3.63;;
34317;SDS011;20582;52.196;20.952;2023-03-14T11:13:58;8.85;;;4.43;;
34317;SDS011;20582;52.196;20.952;2023-03-14T11:19:27;8.98;;;4.40;;
34317;SDS011;20582;52.196;20.952;2023-03-14T11:21:58;11.63;;;4.35;;
34317;SDS011;20582;52.196;20.952;2023-03-14T11:31:58;10.95;;;4.30;;
34317;SDS011;20582;52.196;20.952;2023-03-14T11:34:29;12.23;;;4.63;;
34317;SDS011;20582;52.196;20.952;2023-03-14T11:39:27;12.52;;;4.90;;
34317;SDS011;20582;52.196;20.952;2023-03-14T11:41:55;12.20;;;4.75;;
34317;SDS011;20582;52.196;20.952;2023-03-14T11:44:27;10.50;;;4.47;;
34317;SDS011;20582;52.196;20.952;2023-03-14T11:49:38;12.48;;;4.63;;
34317;SDS011;20582;52.196;20.952;2023-03-14T11:52:08;12.45;;;5.07;;
34317;SDS011;20582;52.196;20.952;2023-03-14T11:57:05;10.27;;;4.70;;
34317;SDS011;20582;52.196;20.952;2023-03-14T12:02:05;13.80;;;5.05;;
34317;SDS011;20582;52.196;20.952;2023-03-14T12:04:42;12.95;;;4.80;;
34317;SDS011;20582;52.196;20.952;2023-03-14T12:09:54;11.05;;;5.20;;
34317;SDS011;20582;52.196;20.952;2023-03-14T12:12:21;12.20;;;5.50;;
34317;SDS011;20582;52.196;20.952;2023-03-14T12:14:55;14.05;;;5.35;;
34317;SDS011;20582;52.196;20.952;2023-03-14T12:17:24;13.85;;;5.05;;
34317;SDS011;20582;52.196;20.952;2023-03-14T12:20:00;11.55;;;5.50;;
34317;SDS011;20582;52.196;20.952;2023-03-14T12:22:27;13.40;;;5.05;;
34317;SDS011;20582;52.196;20.952;2023-03-14T12:24:55;12.38;;;5.07;;
34317;SDS011;20582;52.196;20.952;2023-03-14T12:30:15;13.20;;;5.25;;
34317;SDS011;20582;52.196;20.952;2023-03-14T12:32:41;12.93;;;5.25;;
34317;SDS011;20582;52.196;20.952;2023-03-14T12:37:52;13.63;;;5.75;;
34317;SDS011;20582;52.196;20.952;2023-03-14T12:40:21;12.15;;;5.75;;
34317;SDS011;20582;52.196;20.952;2023-03-14T12:42:54;13.60;;;5.60;;
34317;SDS011;20582;52.196;20.952;2023-03-14T12:45:24;15.32;;;6.10;;
34317;SDS011;20582;52.196;20.952;2023-03-14T12:47:52;14.35;;;6.30;;
34317;SDS011;20582;52.196;20.952;2023-03-14T12:50:21;11.10;;;5.90;;
34317;SDS011;20582;52.196;20.952;2023-03-14T12:55:22;12.95;;;5.85;;
34317;SDS011;20582;52.196;20.952;2023-03-14T12:57:55;12.90;;;6.50;;
34317;SDS011;20582;52.196;20.952;2023-03-14T13:00:35;16.58;;;6.22;;
34317;SDS011;20582;52.196;20.952;2023-03-14T13:03:20;14.57;;;6.85;;
34317;SDS011;20582;52.196;20.952;2023-03-14T13:06:00;12.80;;;6.43;;
34317;SDS011;20582;52.196;20.952;2023-03-14T13:08:32;9.63;;;5.93;;
34317;SDS011;20582;52.196;20.952;2023-03-14T13:10:59;15.27;;;6.10;;
34317;SDS011;20582;52.196;20.952;2023-03-14T13:13:25;16.92;;;6.57;;
34317;SDS011;20582;52.196;20.952;2023-03-14T13:15:56;14.65;;;6.25;;
34317;SDS011;20582;52.196;20.952;2023-03-14T13:18:38;15.10;;;6.60;;
34317;SDS011;20582;52.196;20.952;2023-03-14T13:21:18;13.70;;;6.55;;
34317;SDS011;20582;52.196;20.952;2023-03-14T13:23:57;15.85;;;7.10;;
34317;SDS011;20582;52.196;20.952;2023-03-14T13:26:25;12.88;;;7.00;;
34317;SDS011;20582;52.196;20.952;2023-03-14T13:28:57;15.10;;;6.68;;
34317;SDS011;20582;52.196;20.952;2023-03-14T13:31:24;14.88;;;7.40;;
34317;SDS011;20582;52.196;20.952;2023-03-14T13:33:58;15.40;;;7.10;;
34317;SDS011;20582;52.196;20.952;2023-03-14T13:36:23;16.73;;;7.53;;
34317;SDS011;20582;52.196;20.952;2023-03-14T13:38:55;18.38;;;7.15;;
34317;SDS011;20582;52.196;20.952;2023-03-14T13:41:22;16.17;;;7.70;;
34317;SDS011;20582;52.196;20.952;2023-03-14T13:43:49;17.23;;;7.50;;
34317;SDS011;20582;52.196;20.952;2023-03-14T13:46:21;16.33;;;7.25;;
34317;SDS011;20582;52.196;20.952;2023-03-14T13:48:51;16.35;;;7.88;;
34317;SDS011;20582;52.196;20.952;2023-03-14T13:51:18;16.50;;;7.70;;
34317;SDS011;20582;52.196;20.952;2023-03-14T13:53:46;16.90;;;8.45;;
34317;SDS011;20582;52.196;20.952;2023-03-14T13:56:14;16.42;;;8.90;;
34317;SDS011;20582;52.196;20.952;2023-03-14T13:58:40;18.05;;;8.35;;
34317;SDS011;20582;52.196;20.952;2023-03-14T14:01:11;16.48;;;7.78;;
34317;SDS011;20582;52.196;20.952;2023-03-14T14:03:39;21.00;;;11.27;;
34317;SDS011;20582;52.196;20.952;2023-03-14T14:06:08;24.90;;;13.13;;
34317;SDS011;20582;52.196;20.952;2023-03-14T14:08:35;26.75;;;12.18;;
34317;SDS011;20582;52.196;20.952;2023-03-14T14:11:05;17.80;;;9.68;;
34317;SDS011;20582;52.196;20.952;2023-03-14T14:13:32;20.25;;;8.10;;
34317;SDS011;20582;52.196;20.952;2023-03-14T14:15:59;15.57;;;7.07;;
34317;SDS011;20582;52.196;20.952;2023-03-14T14:18:26;19.00;;;7.78;;
34317;SDS011;20582;52.196;20.952;2023-03-14T14:20:53;15.73;;;8.07;;
34317;SDS011;20582;52.196;20.952;2023-03-14T14:23:20;13.70;;;7.32;;
34317;SDS011;20582;52.196;20.952;2023-03-14T14:25:50;15.63;;;7.70;;
34317;SDS011;20582;52.196;20.952;2023-03-14T14:30:45;14.02;;;7.13;;
34317;SDS011;20582;52.196;20.952;2023-03-14T14:33:19;18.17;;;7.93;;
34317;SDS011;20582;52.196;20.952;2023-03-14T14:35:49;15.93;;;7.72;;
34317;SDS011;20582;52.196;20.952;2023-03-14T14:38:16;16.70;;;9.03;;
34317;SDS011;20582;52.196;20.952;2023-03-14T14:40:46;18.80;;;9.73;;
34317;SDS011;20582;52.196;20.952;2023-03-14T14:43:17;17.77;;;9.02;;
34317;SDS011;20582;52.196;20.952;2023-03-14T14:45:44;15.05;;;8.93;;
34317;SDS011;20582;52.196;20.952;2023-03-14T14:48:11;15.80;;;8.63;;
34317;SDS011;20582;52.196;20.952;2023-03-14T14:50:59;17.60;;;9.68;;
34317;SDS011;20582;52.196;20.952;2023-03-14T14:53:28;23.38;;;10.80;;
34317;SDS011;20582;52.196;20.952;2023-03-14T14:55:56;21.48;;;10.52;;
34317;SDS011;20582;52.196;20.952;2023-03-14T14:58:35;20.48;;;10.02;;
34317;SDS011;20582;52.196;20.952;2023-03-14T15:01:19;18.17;;;9.48;;
34317;SDS011;20582;52.196;20.952;2023-03-14T15:03:46;18.63;;;9.85;;
34317;SDS011;20582;52.196;20.952;2023-03-14T15:06:13;17.58;;;8.73;;
34317;SDS011;20582;52.196;20.952;2023-03-14T15:08:40;17.20;;;8.50;;
34317;SDS011;20582;52.196;20.952;2023-03-14T15:11:21;16.60;;;9.05;;
34317;SDS011;20582;52.196;20.952;2023-03-14T15:13:47;16.02;;;8.98;;
34317;SDS011;20582;52.196;20.952;2023-03-14T15:16:15;23.80;;;10.65;;
34317;SDS011;20582;52.196;20.952;2023-03-14T15:18:41;24.25;;;11.27;;
34317;SDS011;20582;52.196;20.952;2023-03-14T15:21:10;22.52;;;11.00;;